Time;durP1;ratioP1;P1;durP2;ratioP2;P2;SDS_P1;SDS_P2;PMS_P1;PMS_P2;Temp;Humidity;BMP_temperature;BMP_pressure;BME280_temperature;BME280_humidity;BME280_pressure;Samples;Min_cycle;Max_cycle;Signal;HPM_P1;HPM_P2
2023/04/04 00:02:47;;;;;;;;;;;;;;;26.13;39.70;94413.66;4993157;28;7334;-56
2023/04/04 00:05:42;;;;;;;;;;;;;;;26.09;40.07;94412.44;4951314;28;7283;-56
2023/04/04 00:08:25;;;;;;;;;;;;;;;26.06;39.87;94411.44;4888631;29;7289;-56
2023/04/04 00:10:59;;;;;;;;;;;;;;;26.07;39.71;94410.19;4880760;29;7015;-56
2023/04/04 00:13:27;;;;;;;;;;;;;;;26.07;39.57;94410.19;4877301;29;7259;-56
2023/04/04 00:15:54;;;;;;;;;;;;;;;26.07;40.26;94410.19;4897457;29;7034;-56
2023/04/04 00:18:29;;;;;;;;;;;;;;;26.04;39.75;94405.69;4915225;29;8982;-56
2023/04/04 00:20:56;;;;;;;;;;;;;;;26.07;40.02;94401.91;4905702;29;9118;-56
2023/04/04 00:23:24;;;;;;;;;;;;;;;26.04;39.99;94397.41;4914894;29;8115;-56
2023/04/04 00:26:02;;;;;;;;;;;;;;;26.05;40.12;94392.66;4920886;29;7051;-56
2023/04/04 00:28:32;;;;;;;;;;;;;;;26.05;39.62;94390.66;4913389;29;9152;-56
2023/04/04 00:30:59;;;;;;;;;;;;;;;26.07;40.16;94393.66;4912204;29;7067;-56
2023/04/04 00:33:26;;;;;;;;;;;;;;;26.07;40.31;94393.66;4910746;29;9547;-56
2023/04/04 00:35:53;;;;;;;;;;;;;;;26.08;39.62;94394.38;4911315;29;9081;-56
2023/04/04 00:38:19;;;;;;;;;;;;;;;26.06;39.85;94391.38;4920204;28;7429;-56
2023/04/04 00:40:49;;;;;;;;;;;;;;;26.06;39.91;94392.13;4970247;28;8736;-56
2023/04/04 00:43:21;;;;;;;;;;;;;;;26.06;40.35;94394.91;4966806;28;7351;-56
2023/04/04 00:45:56;;;;;;;;;;;;;;;26.08;39.78;94394.38;5031025;28;7031;-56
2023/04/04 00:48:24;;;;;;;;;;;;;;;26.07;39.45;94390.13;5019435;28;6987;-56
2023/04/04 00:50:52;;;;;;;;;;;;;;;26.05;40.36;94395.41;5013130;28;9054;-56
2023/04/04 00:53:50;;;;;;;;;;;;;;;26.05;39.83;94398.94;5021496;28;7249;-56
2023/04/04 00:56:19;;;;;;;;;;;;;;;26.02;40.35;94390.94;5008043;28;7509;-56
2023/04/04 00:58:56;;;;;;;;;;;;;;;26.04;39.60;94389.16;4985368;28;7675;-56
2023/04/04 01:01:24;;;;;;;;;;;;;;;26.03;40.30;94381.41;4986833;28;7226;-56
2023/04/04 01:03:52;;;;;;;;;;;;;;;26.03;39.78;94387.66;4998749;28;9301;-56
2023/04/04 01:06:29;;;;;;;;;;;;;;;26.01;40.24;94384.66;5008092;28;7238;-56
2023/04/04 01:08:56;;;;;;;;;;;;;;;26.00;40.59;94377.66;5001674;28;8779;-56
2023/04/04 01:11:22;;;;;;;;;;;;;;;25.99;39.70;94387.19;5009727;28;7123;-56
2023/04/04 01:14:39;;;;;;;;;;;;;;;25.99;40.64;94380.94;5022741;28;8685;-56
2023/04/04 01:17:06;;;;;;;;;;;;;;;25.99;40.44;94384.44;4973544;28;9471;-56
2023/04/04 01:20:12;;;;;;;;;;;;;;;26.00;39.72;94380.41;4987751;28;9565;-56
2023/04/04 01:22:54;;;;;;;;;;;;;;;25.99;40.37;94378.19;4991111;28;7248;-56
2023/04/04 01:25:38;;;;;;;;;;;;;;;26.00;39.75;94374.91;4966606;28;7134;-56
2023/04/04 01:28:16;;;;;;;;;;;;;;;26.00;40.52;94372.16;4972839;28;8972;-56
2023/04/04 01:30:55;;;;;;;;;;;;;;;26.02;40.38;94375.13;4974980;28;7012;-56
2023/04/04 01:33:42;;;;;;;;;;;;;;;25.99;40.17;94378.91;5015454;28;9088;-56
2023/04/04 01:36:39;;;;;;;;;;;;;;;26.02;40.02;94382.66;5003563;28;7299;-56
2023/04/04 01:39:21;;;;;;;;;;;;;;;26.03;40.18;94376.63;4995772;28;8167;-56
2023/04/04 01:42:07;;;;;;;;;;;;;;;26.03;40.47;94371.09;5010509;28;7282;-56
2023/04/04 01:44:33;;;;;;;;;;;;;;;26.02;40.37;94371.63;5019265;28;7265;-56
2023/04/04 01:46:59;;;;;;;;;;;;;;;25.97;40.09;94367.66;5011457;28;9008;-56
2023/04/04 01:49:25;;;;;;;;;;;;;;;25.99;40.52;94370.66;5003950;28;9465;-56
2023/04/04 01:52:28;;;;;;;;;;;;;;;25.99;40.63;94367.88;4999046;28;9064;-56
2023/04/04 01:54:56;;;;;;;;;;;;;;;25.98;39.87;94369.16;5019057;28;7117;-56
2023/04/04 01:57:30;;;;;;;;;;;;;;;25.97;39.74;94364.16;5009466;28;9095;-56
2023/04/04 02:00:07;;;;;;;;;;;;;;;25.98;40.37;94362.91;5017002;28;8991;-56
2023/04/04 02:02:33;;;;;;;;;;;;;;;25.96;39.70;94368.94;5010361;28;7992;-56
2023/04/04 02:05:01;;;;;;;;;;;;;;;25.98;39.52;94369.16;5007974;28;7643;-56
2023/04/04 02:07:28;;;;;;;;;;;;;;;25.98;39.79;94365.66;5003601;28;8320;-56
2023/04/04 02:09:56;;;;;;;;;;;;;;;25.97;39.74;94361.38;5006322;28;7248;-56
2023/04/04 02:12:22;;;;;;;;;;;;;;;26.00;39.91;94365.88;5013176;28;9659;-56
2023/04/04 02:14:51;;;;;;;;;;;;;;;25.98;40.07;94365.66;5004624;28;8993;-56
2023/04/04 02:17:19;;;;;;;;;;;;;;;25.98;40.29;94371.91;4995174;28;7275;-57
2023/04/04 02:19:46;;;;;;;;;;;;;;;25.98;40.24;94369.16;5024013;28;7349;-56
2023/04/04 02:22:12;;;;;;;;;;;;;;;25.97;40.11;94378.69;5014117;28;9054;-56
2023/04/04 02:24:37;;;;;;;;;;;;;;;25.97;39.74;94373.16;5002385;28;9063;-56
2023/04/04 02:27:06;;;;;;;;;;;;;;;25.94;40.50;94370.72;5011935;28;7203;-55
2023/04/04 02:29:33;;;;;;;;;;;;;;;25.98;40.39;94379.44;5019306;28;7046;-56
2023/04/04 02:32:01;;;;;;;;;;;;;;;25.94;40.13;94378.97;5020281;28;7042;-56
2023/04/04 02:34:31;;;;;;;;;;;;;;;25.94;40.43;94373.47;5048196;28;9174;-56
2023/04/04 02:36:59;;;;;;;;;;;;;;;25.94;40.78;94373.47;5045988;28;7237;-56
2023/04/04 02:39:27;;;;;;;;;;;;;;;25.92;40.38;94365.72;5026226;28;7048;-56
2023/04/04 02:41:54;;;;;;;;;;;;;;;25.94;40.56;94367.94;5020220;28;9125;-56
2023/04/04 02:44:21;;;;;;;;;;;;;;;25.94;40.24;94374.22;5031207;28;7295;-56
2023/04/04 02:46:51;;;;;;;;;;;;;;;25.95;40.25;94372.19;5003108;28;7144;-56
2023/04/04 02:49:19;;;;;;;;;;;;;;;25.91;40.41;94369.72;5037813;28;7188;-56
2023/04/04 02:51:46;;;;;;;;;;;;;;;25.91;39.87;94369.72;5019929;28;7108;-56
2023/04/04 02:54:21;;;;;;;;;;;;;;;25.92;40.34;94370.47;5020499;28;7019;-56
2023/04/04 02:56:51;;;;;;;;;;;;;;;25.91;40.55;94366.22;5037106;28;7271;-56
2023/04/04 02:59:20;;;;;;;;;;;;;;;25.92;39.90;94368.47;5021007;28;8677;-56
2023/04/04 03:01:45;;;;;;;;;;;;;;;25.91;40.64;94364.22;5018873;28;7298;-56
2023/04/04 03:04:12;;;;;;;;;;;;;;;25.92;39.87;94365.72;5024685;28;6962;-56
2023/04/04 03:06:40;;;;;;;;;;;;;;;25.92;39.97;94359.44;5026857;28;7577;-56
2023/04/04 03:09:08;;;;;;;;;;;;;;;25.92;39.68;94364.97;5048802;28;9371;-56
2023/04/04 03:11:34;;;;;;;;;;;;;;;25.90;39.84;94359.94;5019150;28;10237;-56
2023/04/04 03:14:00;;;;;;;;;;;;;;;25.89;40.06;94360.47;5025890;28;9112;-56
2023/04/04 03:16:28;;;;;;;;;;;;;;;25.88;40.77;94361.75;5023027;28;7002;-56
2023/04/04 03:18:56;;;;;;;;;;;;;;;25.89;39.88;94355.72;5028442;28;7292;-56
2023/04/04 03:21:31;;;;;;;;;;;;;;;25.88;40.38;94354.19;5017939;28;7030;-56
2023/04/04 03:24:05;;;;;;;;;;;;;;;25.89;40.78;94355.72;5053247;28;7166;-56
2023/04/04 03:26:31;;;;;;;;;;;;;;;25.88;40.84;94354.19;5027983;28;7038;-56
2023/04/04 03:29:07;;;;;;;;;;;;;;;25.88;40.39;94354.19;5023484;28;9078;-56
2023/04/04 03:31:34;;;;;;;;;;;;;;;25.90;40.44;94361.97;5018630;28;7395;-56
2023/04/04 03:34:16;;;;;;;;;;;;;;;25.88;40.15;94362.47;5033452;28;8998;-56
2023/04/04 03:36:52;;;;;;;;;;;;;;;25.88;40.51;94359.72;5030040;28;7138;-56
2023/04/04 03:39:38;;;;;;;;;;;;;;;25.89;39.74;94360.47;5019162;28;8946;-56
2023/04/04 03:42:16;;;;;;;;;;;;;;;25.88;40.17;94353.47;5015366;28;9152;-56
2023/04/04 03:44:52;;;;;;;;;;;;;;;25.87;40.37;94366.50;5024544;28;7249;-56
2023/04/04 03:47:37;;;;;;;;;;;;;;;25.87;39.94;94351.97;5021821;28;7304;-56
2023/04/04 03:50:04;;;;;;;;;;;;;;;25.83;40.75;94348.75;5022154;28;7163;-56
2023/04/04 03:52:30;;;;;;;;;;;;;;;25.86;40.29;94351.22;5008734;28;8184;-56
2023/04/04 03:54:59;;;;;;;;;;;;;;;25.77;40.65;94357.06;5016070;28;7037;-56
2023/04/04 03:57:26;;;;;;;;;;;;;;;25.86;40.19;94356.72;5027579;28;7056;-56
2023/04/04 03:59:53;;;;;;;;;;;;;;;25.87;40.47;94349.97;5022646;28;9056;-56
2023/04/04 04:02:23;;;;;;;;;;;;;;;25.86;39.96;94353.25;5024397;28;7029;-56
2023/04/04 04:05:09;;;;;;;;;;;;;;;25.89;40.67;94354.94;5029002;28;8685;-56
2023/04/04 04:07:45;;;;;;;;;;;;;;;25.87;40.67;94358.22;5023927;28;7104;-56
2023/04/04 04:10:12;;;;;;;;;;;;;;;25.89;40.43;94363.22;5032556;28;7207;-56
2023/04/04 04:12:43;;;;;;;;;;;;;;;25.88;40.12;94356.97;5015546;28;7036;-56
2023/04/04 04:15:10;;;;;;;;;;;;;;;25.89;39.85;94366.72;5024731;28;7250;-56
2023/04/04 04:17:39;;;;;;;;;;;;;;;25.88;40.01;94362.47;5021283;28;7055;-56
2023/04/04 04:20:09;;;;;;;;;;;;;;;25.89;39.93;94369.50;5030107;28;7458;-56
2023/04/04 04:22:45;;;;;;;;;;;;;;;25.87;39.78;94363.75;5044900;28;9675;-56
2023/04/04 04:25:27;;;;;;;;;;;;;;;25.88;40.68;94361.75;5034687;28;7030;-56
2023/04/04 04:28:06;;;;;;;;;;;;;;;25.84;40.49;94352.97;5015821;28;7021;-56
2023/04/04 04:30:47;;;;;;;;;;;;;;;25.85;40.17;94366.25;5011934;28;7060;-56
2023/04/04 04:33:15;;;;;;;;;;;;;;;25.86;40.42;94362.22;5026316;28;7338;-56
2023/04/04 04:35:49;;;;;;;;;;;;;;;25.88;40.66;94370.72;5028535;28;7651;-56
2023/04/04 04:38:53;;;;;;;;;;;;;;;25.87;40.63;94368.50;5029659;28;7271;-56
2023/04/04 04:41:30;;;;;;;;;;;;;;;25.82;40.60;94364.53;4983847;28;9027;-56
2023/04/04 04:44:06;;;;;;;;;;;;;;;25.85;40.29;94371.78;4991317;28;9435;-56
2023/04/04 04:46:32;;;;;;;;;;;;;;;25.81;40.35;94371.31;4993177;28;7238;-55
2023/04/04 04:49:07;;;;;;;;;;;;;;;25.85;40.16;94377.28;4982076;28;7229;-56
2023/04/04 04:51:50;;;;;;;;;;;;;;;25.85;40.44;94377.28;4992018;28;7323;-55
2023/04/04 04:54:20;;;;;;;;;;;;;;;25.85;43.02;94382.78;4984769;28;8419;-56
2023/04/04 04:57:00;;;;;;;;;;;;;;;25.96;42.40;94387.47;4980245;28;7268;-56
2023/04/04 04:59:37;;;;;;;;;;;;;;;25.95;43.31;94389.47;4986892;28;8704;-56
2023/04/04 05:02:15;;;;;;;;;;;;;;;25.97;42.38;94377.94;4983235;28;7598;-56
2023/04/04 05:04:43;;;;;;;;;;;;;;;25.99;42.31;94383.69;4980538;28;7596;-56
2023/04/04 05:07:11;;;;;;;;;;;;;;;25.98;42.70;94382.94;4989905;28;9303;-56
2023/04/04 05:09:38;;;;;;;;;;;;;;;25.99;41.87;94392.69;4997970;28;9457;-56
2023/04/04 05:12:23;;;;;;;;;;;;;;;26.01;42.40;94392.19;4986653;28;9086;-56
2023/04/04 05:14:49;;;;;;;;;;;;;;;26.03;41.28;94404.19;4996352;28;8771;-56
2023/04/04 05:17:45;;;;;;;;;;;;;;;26.02;42.01;94391.69;5022607;28;9021;-56
2023/04/04 05:20:11;;;;;;;;;;;;;;;26.08;41.55;94392.41;5023024;28;7443;-57
2023/04/04 05:22:59;;;;;;;;;;;;;;;26.07;39.79;94404.69;5035441;28;7031;-56
2023/04/04 05:25:59;;;;;;;;;;;;;;;26.04;41.82;94391.16;5022659;28;9303;-56
2023/04/04 05:28:58;;;;;;;;;;;;;;;26.04;41.12;94399.41;4973765;28;7949;-56
2023/04/04 05:31:38;;;;;;;;;;;;;;;26.00;40.42;94405.22;4915787;29;7133;-56
2023/04/04 05:34:25;;;;;;;;;;;;;;;25.94;41.15;94398.25;4912067;29;8726;-56
2023/04/04 05:37:00;;;;;;;;;;;;;;;25.94;40.74;94399.00;4906845;29;7712;-56
2023/04/04 05:39:40;;;;;;;;;;;;;;;26.02;40.57;94401.94;4911600;29;8761;-56
2023/04/04 05:42:37;;;;;;;;;;;;;;;26.10;39.33;94409.16;4909659;29;7176;-56
2023/04/04 05:45:07;;;;;;;;;;;;;;;26.03;38.63;94408.97;4850843;29;9699;-56
2023/04/04 05:47:35;;;;;;;;;;;;;;;26.03;39.67;94404.19;4854789;29;9245;-56
2023/04/04 05:50:08;;;;;;;;;;;;;;;26.06;39.36;94408.69;4857099;29;8138;-56
2023/04/04 05:52:35;;;;;;;;;;;;;;;26.05;38.22;94412.72;4852053;29;7037;-56
2023/04/04 05:55:11;;;;;;;;;;;;;;;26.01;38.77;94411.50;4856001;29;7016;-57
2023/04/04 05:57:49;;;;;;;;;;;;;;;25.95;39.51;94408.75;4856741;29;9163;-56
2023/04/04 06:00:16;;;;;;;;;;;;;;;25.93;39.08;94407.78;4840338;29;7338;-56
2023/04/04 06:02:43;;;;;;;;;;;;;;;25.89;39.57;94405.31;4854460;29;9072;-56
2023/04/04 06:05:10;;;;;;;;;;;;;;;25.90;39.10;94417.81;4876260;29;7340;-56
2023/04/04 06:07:37;;;;;;;;;;;;;;;25.89;39.69;94423.84;4912290;28;9089;-56
2023/04/04 06:10:04;;;;;;;;;;;;;;;25.86;39.27;94414.59;4947916;28;9063;-56
2023/04/04 06:12:33;;;;;;;;;;;;;;;25.85;39.27;94424.13;4946053;28;7503;-56
2023/04/04 06:15:01;;;;;;;;;;;;;;;25.83;39.11;94412.88;4934315;28;8835;-56
2023/04/04 06:17:43;;;;;;;;;;;;;;;25.83;39.65;94417.63;4937380;28;9134;-56
2023/04/04 06:20:12;;;;;;;;;;;;;;;25.82;40.13;94419.63;4945680;28;9379;-56
2023/04/04 06:22:43;;;;;;;;;;;;;;;25.84;39.90;94419.88;5026283;28;9523;-56
2023/04/04 06:25:10;;;;;;;;;;;;;;;25.82;39.30;94410.59;5027234;28;9206;-56
2023/04/04 06:27:46;;;;;;;;;;;;;;;25.86;39.60;94417.34;5022371;28;8795;-56
2023/04/04 06:30:13;;;;;;;;;;;;;;;25.85;40.13;94421.38;5027833;28;7290;-56
2023/04/04 06:32:58;;;;;;;;;;;;;;;25.86;40.11;94427.63;5021737;28;7054;-56
2023/04/04 06:35:33;;;;;;;;;;;;;;;25.85;40.07;94426.88;5012545;28;7340;-56
2023/04/04 06:38:03;;;;;;;;;;;;;;;25.88;40.07;94425.13;5031769;28;9091;-56
2023/04/04 06:40:39;;;;;;;;;;;;;;;25.89;39.57;94426.59;5024826;28;6865;-56
2023/04/04 06:43:35;;;;;;;;;;;;;;;25.88;39.89;94431.34;5026279;28;7256;-56
2023/04/04 06:46:01;;;;;;;;;;;;;;;25.88;39.78;94425.13;5028964;28;8872;-56
2023/04/04 06:48:29;;;;;;;;;;;;;;;25.94;39.11;94428.56;5027351;28;8984;-56
2023/04/04 06:51:11;;;;;;;;;;;;;;;25.92;39.52;94422.84;5032875;28;7177;-56
2023/04/04 06:53:42;;;;;;;;;;;;;;;25.91;40.24;94424.84;5042247;28;7124;-56
2023/04/04 06:56:34;;;;;;;;;;;;;;;25.90;39.29;94428.09;5022490;28;7454;-56
2023/04/04 06:59:03;;;;;;;;;;;;;;;25.88;39.58;94425.84;4989387;28;9049;-56
2023/04/04 07:01:33;;;;;;;;;;;;;;;25.90;39.63;94425.34;4988638;28;7736;-57
2023/04/04 07:03:59;;;;;;;;;;;;;;;25.89;39.51;94426.59;5000341;28;8233;-56
2023/04/04 07:06:28;;;;;;;;;;;;;;;25.88;40.22;94425.84;4986045;28;9231;-56
2023/04/04 07:08:56;;;;;;;;;;;;;;;25.88;40.19;94425.84;4981871;28;7043;-56
2023/04/04 07:11:32;;;;;;;;;;;;;;;25.87;40.43;94424.38;5006634;28;8938;-57
2023/04/04 07:13:58;;;;;;;;;;;;;;;25.90;39.97;94428.84;5007060;28;7040;-56
2023/04/04 07:16:24;;;;;;;;;;;;;;;25.84;40.34;94421.88;4984050;28;9016;-56
2023/04/04 07:19:09;;;;;;;;;;;;;;;25.89;40.12;94432.09;4990176;28;9604;-56
2023/04/04 07:21:57;;;;;;;;;;;;;;;25.89;40.37;94432.09;5008160;28;8465;-56
2023/04/04 07:24:53;;;;;;;;;;;;;;;25.89;40.75;94438.38;4985104;28;7163;-56
2023/04/04 07:27:20;;;;;;;;;;;;;;;25.89;40.12;94438.38;4985547;28;8030;-56
2023/04/04 07:29:57;;;;;;;;;;;;;;;25.90;40.85;94439.84;4994611;28;8715;-56
2023/04/04 07:32:36;;;;;;;;;;;;;;;25.87;40.37;94435.38;4987138;28;7127;-56
2023/04/04 07:35:08;;;;;;;;;;;;;;;25.91;40.20;94440.63;4990286;28;9132;-56
2023/04/04 07:38:08;;;;;;;;;;;;;;;25.92;40.86;94440.13;5025711;28;7204;-56
2023/04/04 07:40:42;;;;;;;;;;;;;;;25.90;40.57;94433.63;5027470;28;8752;-57
2023/04/04 07:43:15;;;;;;;;;;;;;;;25.92;40.40;94436.59;5024388;28;7841;-57
2023/04/04 07:45:53;;;;;;;;;;;;;;;25.93;40.58;94441.59;5015785;28;9337;-56
2023/04/04 07:48:28;;;;;;;;;;;;;;;25.93;40.55;94449.13;5029232;28;8951;-56
2023/04/04 07:51:30;;;;;;;;;;;;;;;25.94;40.80;94448.63;5021361;28;7042;-56
2023/04/04 07:54:16;;;;;;;;;;;;;;;25.95;40.49;94447.34;4947488;28;7030;-56
2023/04/04 07:56:55;;;;;;;;;;;;;;;25.96;40.30;94451.59;4965103;28;7275;-57
2023/04/04 07:59:21;;;;;;;;;;;;;;;25.97;40.63;94447.59;4952980;28;7281;-56
2023/04/04 08:01:57;;;;;;;;;;;;;;;25.97;40.72;94449.59;4943190;28;8709;-56
2023/04/04 08:04:23;;;;;;;;;;;;;;;25.97;40.40;94442.06;4951389;28;7030;-56
2023/04/04 08:06:52;;;;;;;;;;;;;;;25.98;41.03;94443.56;4938797;28;9007;-57
2023/04/04 08:09:18;;;;;;;;;;;;;;;25.99;41.23;94447.81;4947712;28;7097;-56
2023/04/04 08:11:45;;;;;;;;;;;;;;;26.00;41.09;94443.81;4971425;28;7160;-56
2023/04/04 08:14:41;;;;;;;;;;;;;;;26.01;40.89;94444.56;4953928;28;7041;-56
2023/04/04 08:17:25;;;;;;;;;;;;;;;26.01;40.79;94444.56;4926845;29;7010;-56
2023/04/04 08:19:51;;;;;;;;;;;;;;;26.01;41.15;94450.81;4932975;28;7220;-56
2023/04/04 08:22:17;;;;;;;;;;;;;;;26.02;40.74;94441.28;4943061;28;9012;-56
2023/04/04 08:24:55;;;;;;;;;;;;;;;26.02;40.20;94446.81;4940156;28;9460;-56
2023/04/04 08:27:23;;;;;;;;;;;;;;;26.03;41.04;94453.78;4934957;28;7129;-56
2023/04/04 08:30:02;;;;;;;;;;;;;;;26.04;40.71;94452.56;4966125;28;8996;-56
2023/04/04 08:32:32;;;;;;;;;;;;;;;26.07;40.07;94448.78;4969286;28;7141;-56
2023/04/04 08:34:58;;;;;;;;;;;;;;;26.14;39.48;94456.50;4974840;28;7390;-56
2023/04/04 08:37:28;;;;;;;;;;;;;;;26.21;39.39;94446.19;4962000;28;7084;-56
2023/04/04 08:40:05;;;;;;;;;;;;;;;26.23;39.49;94454.69;4982873;28;8593;-56
2023/04/04 08:43:00;;;;;;;;;;;;;;;26.22;38.66;94448.44;4970475;28;7304;-56
2023/04/04 08:45:30;;;;;;;;;;;;;;;26.23;38.36;94449.19;4979652;28;9570;-56
2023/04/04 08:48:00;;;;;;;;;;;;;;;26.24;39.02;94450.66;4977187;28;9090;-56
2023/04/04 08:50:29;;;;;;;;;;;;;;;26.23;39.37;94452.69;4967511;28;8978;-56
2023/04/04 08:52:58;;;;;;;;;;;;;;;26.21;38.40;94452.44;4973112;28;7251;-56
2023/04/04 08:55:44;;;;;;;;;;;;;;;26.21;38.63;94454.47;5019945;28;7614;-56
2023/04/04 08:58:25;;;;;;;;;;;;;;;26.20;38.91;94456.47;5030466;28;7277;-56
2023/04/04 09:00:55;;;;;;;;;;;;;;;26.19;39.55;94459.75;5020196;28;7437;-56
2023/04/04 09:03:46;;;;;;;;;;;;;;;26.19;39.37;94457.72;5020805;28;9626;-56
2023/04/04 09:06:12;;;;;;;;;;;;;;;26.19;39.37;94459.75;5017801;28;9159;-56
2023/04/04 09:08:44;;;;;;;;;;;;;;;26.20;39.52;94464.00;5025369;28;7289;-56
2023/04/04 09:11:14;;;;;;;;;;;;;;;26.16;39.62;94462.25;5047194;28;7294;-56
2023/04/04 09:13:44;;;;;;;;;;;;;;;26.15;39.08;94455.25;5042459;28;9104;-56
2023/04/04 09:16:12;;;;;;;;;;;;;;;26.16;39.05;94461.53;5019374;28;7033;-56
2023/04/04 09:18:55;;;;;;;;;;;;;;;26.19;39.46;94459.75;5039710;28;9478;-57
2023/04/04 09:21:32;;;;;;;;;;;;;;;26.19;39.05;94465.25;5013312;28;7254;-56
2023/04/04 09:24:39;;;;;;;;;;;;;;;26.17;39.70;94466.50;5021979;28;7236;-56
2023/04/04 09:27:12;;;;;;;;;;;;;;;26.17;39.21;94469.28;5023393;28;7014;-56
2023/04/04 09:29:41;;;;;;;;;;;;;;;26.14;39.71;94464.78;5017636;28;8199;-56
2023/04/04 09:32:21;;;;;;;;;;;;;;;26.16;39.54;94467.75;5018736;28;7575;-56
2023/04/04 09:34:51;;;;;;;;;;;;;;;26.18;39.07;94459.00;5024992;28;7105;-56
2023/04/04 09:37:39;;;;;;;;;;;;;;;26.20;39.38;94466.75;5023504;28;9290;-56
2023/04/04 09:40:16;;;;;;;;;;;;;;;26.22;39.67;94475.25;5018791;28;9023;-56
2023/04/04 09:42:55;;;;;;;;;;;;;;;26.26;39.72;94465.44;5029048;28;7195;-56
2023/04/04 09:45:43;;;;;;;;;;;;;;;26.31;39.38;94466.66;5024523;28;9040;-57
2023/04/04 09:48:31;;;;;;;;;;;;;;;26.30;38.49;94465.91;5027212;28;7038;-56
2023/04/04 09:51:02;;;;;;;;;;;;;;;26.30;39.34;94460.41;5021320;28;7250;-56
2023/04/04 09:53:47;;;;;;;;;;;;;;;26.29;39.22;94458.91;5024878;28;7586;-57
2023/04/04 09:56:39;;;;;;;;;;;;;;;26.32;39.33;94459.91;5021361;28;7301;-56
2023/04/04 09:59:11;;;;;;;;;;;;;;;26.30;38.99;94465.91;5022723;28;9205;-56
2023/04/04 10:01:44;;;;;;;;;;;;;;;26.31;39.00;94463.91;5025722;28;9077;-56
2023/04/04 10:04:14;;;;;;;;;;;;;;;26.31;39.67;94467.41;5028672;28;9607;-56
2023/04/04 10:06:42;;;;;;;;;;;;;;;26.29;38.99;94464.44;5019961;28;7625;-56
2023/04/04 10:09:18;;;;;;;;;;;;;;;26.33;40.03;94469.66;5022566;28;7118;-56
2023/04/04 10:12:10;;;;;;;;;;;;;;;26.34;39.69;94466.38;5016075;28;8257;-56
2023/04/04 10:14:43;;;;;;;;;;;;;;;26.31;38.70;94472.94;5027513;28;7404;-56
2023/04/04 10:17:46;;;;;;;;;;;;;;;26.37;39.48;94470.13;5021774;28;7314;-56
2023/04/04 10:20:27;;;;;;;;;;;;;;;26.35;39.00;94464.38;5053903;28;8207;-56
2023/04/04 10:23:14;;;;;;;;;;;;;;;26.32;39.12;94462.66;5023053;28;7133;-56
2023/04/04 10:25:49;;;;;;;;;;;;;;;26.36;39.26;94465.88;5024352;28;8248;-56
2023/04/04 10:28:22;;;;;;;;;;;;;;;26.36;39.06;94463.13;5022831;28;7122;-56
2023/04/04 10:31:04;;;;;;;;;;;;;;;26.39;39.11;94470.34;5052100;28;7269;-56
2023/04/04 10:33:50;;;;;;;;;;;;;;;26.39;39.16;94470.34;5022371;28;7110;-56
2023/04/04 10:36:33;;;;;;;;;;;;;;;26.41;39.07;94465.81;5030556;28;7329;-56
2023/04/04 10:39:32;;;;;;;;;;;;;;;26.44;39.64;94475.06;5039964;28;7037;-56
2023/04/04 10:42:00;;;;;;;;;;;;;;;26.42;39.45;94467.31;5051437;28;9429;-56
2023/04/04 10:44:56;;;;;;;;;;;;;;;26.46;38.96;94472.56;5031364;28;7136;-56
2023/04/04 10:47:25;;;;;;;;;;;;;;;26.45;39.63;94465.53;4986763;28;9022;-56
2023/04/04 10:50:21;;;;;;;;;;;;;;;26.45;39.53;94477.31;4992011;28;9317;-56
2023/04/04 10:52:48;;;;;;;;;;;;;;;26.44;39.65;94466.81;4990251;28;7059;-56
2023/04/04 10:55:16;;;;;;;;;;;;;;;26.46;39.63;94465.03;4986933;28;7014;-56
2023/04/04 10:57:50;;;;;;;;;;;;;;;26.45;39.21;94469.03;4996196;28;9083;-56
2023/04/04 11:00:18;;;;;;;;;;;;;;;26.50;39.18;94467.50;4985615;28;7252;-56
2023/04/04 11:02:57;;;;;;;;;;;;;;;26.50;38.93;94473.00;4998291;28;7576;-56
2023/04/04 11:05:27;;;;;;;;;;;;;;;26.49;38.96;94457.75;4997043;28;7202;-57
2023/04/04 11:08:18;;;;;;;;;;;;;;;26.50;39.64;94459.22;4982545;28;7029;-56
2023/04/04 11:10:51;;;;;;;;;;;;;;;26.48;39.14;94459.00;4990897;28;7160;-57
2023/04/04 11:13:35;;;;;;;;;;;;;;;26.53;39.54;94458.22;4982514;28;7290;-57
2023/04/04 11:16:06;;;;;;;;;;;;;;;26.54;39.75;94451.41;4999318;28;7106;-57
2023/04/04 11:18:41;;;;;;;;;;;;;;;26.61;38.98;94461.88;4985713;28;7116;-56
2023/04/04 11:21:10;;;;;;;;;;;;;;;26.60;39.25;94454.88;4994627;28;8708;-56
2023/04/04 11:23:48;;;;;;;;;;;;;;;26.64;39.22;94458.09;5007645;28;8714;-56
2023/04/04 11:26:24;;;;;;;;;;;;;;;26.62;39.36;94453.09;5026549;28;7018;-56
2023/04/04 11:28:51;;;;;;;;;;;;;;;26.60;39.33;94449.38;5026385;28;8949;-56
2023/04/04 11:31:20;;;;;;;;;;;;;;;26.65;39.33;94448.56;5017236;28;7040;-56
2023/04/04 11:34:06;;;;;;;;;;;;;;;26.68;39.45;94455.81;5027974;28;7053;-56
2023/04/04 11:36:37;;;;;;;;;;;;;;;26.68;39.23;94458.56;5022588;28;9347;-56
2023/04/04 11:39:13;;;;;;;;;;;;;;;26.67;39.80;94451.53;5019141;28;7330;-57
2023/04/04 11:42:09;;;;;;;;;;;;;;;26.68;39.32;94453.81;5024930;28;9047;-56
2023/04/04 11:44:56;;;;;;;;;;;;;;;26.71;39.38;94452.75;5030575;28;9005;-56
2023/04/04 11:47:28;;;;;;;;;;;;;;;26.73;38.90;94444.72;5032823;28;6982;-57
2023/04/04 11:50:08;;;;;;;;;;;;;;;26.74;39.39;94448.25;5028111;28;9427;-56
2023/04/04 11:52:34;;;;;;;;;;;;;;;26.75;39.26;94447.00;5030463;28;9068;-56
2023/04/04 11:55:01;;;;;;;;;;;;;;;26.74;39.68;94445.47;5025299;28;6856;-56
2023/04/04 11:57:46;;;;;;;;;;;;;;;26.77;39.34;94455.50;5020644;28;8984;-56
2023/04/04 12:00:29;;;;;;;;;;;;;;;26.77;39.02;94447.22;5050108;28;9820;-56
2023/04/04 12:03:09;;;;;;;;;;;;;;;26.77;39.59;94455.50;5022384;28;7273;-56
2023/04/04 12:05:41;;;;;;;;;;;;;;;26.77;39.21;94447.94;5057920;28;7626;-56
2023/04/04 12:08:35;;;;;;;;;;;;;;;26.77;39.49;94453.47;5025305;28;7260;-56
2023/04/04 12:11:10;;;;;;;;;;;;;;;26.79;39.26;94452.97;4989471;28;6963;-56
2023/04/04 12:13:52;;;;;;;;;;;;;;;26.76;39.68;94446.47;4971186;28;9121;-56
2023/04/04 12:16:21;;;;;;;;;;;;;;;26.74;39.44;94442.72;4967353;28;7305;-56
2023/04/04 12:19:22;;;;;;;;;;;;;;;26.75;39.35;94447.00;4975958;28;7318;-56
2023/04/04 12:22:00;;;;;;;;;;;;;;;26.75;39.19;94436.69;4974551;28;7278;-56
2023/04/04 12:24:26;;;;;;;;;;;;;;;26.80;38.97;94446.16;5001314;28;8450;-56
2023/04/04 12:26:57;;;;;;;;;;;;;;;26.79;39.00;94445.44;4973554;28;7224;-55
2023/04/04 12:29:36;;;;;;;;;;;;;;;26.78;39.64;94443.94;4968168;28;7088;-56
2023/04/04 12:32:21;;;;;;;;;;;;;;;26.78;39.40;94440.41;5001568;28;9197;-56
2023/04/04 12:34:49;;;;;;;;;;;;;;;26.76;38.96;94446.47;5002656;28;7258;-56
2023/04/04 12:37:29;;;;;;;;;;;;;;;26.77;39.07;94442.44;4951255;28;9223;-56
2023/04/04 12:40:07;;;;;;;;;;;;;;;26.77;38.98;94441.69;4988432;28;7267;-56
2023/04/04 12:42:49;;;;;;;;;;;;;;;26.75;39.51;94436.69;4972809;28;7106;-57
2023/04/04 12:45:21;;;;;;;;;;;;;;;26.77;39.76;94436.91;4998205;28;7038;-56
2023/04/04 12:48:12;;;;;;;;;;;;;;;26.76;39.43;94443.72;4992705;28;7612;-56
2023/04/04 12:50:57;;;;;;;;;;;;;;;26.77;39.97;94436.91;5029528;28;9178;-56
2023/04/04 12:53:31;;;;;;;;;;;;;;;26.78;39.81;94441.19;5026058;28;8794;-57
2023/04/04 12:56:08;;;;;;;;;;;;;;;26.80;39.73;94451.69;5030235;28;7358;-56
2023/04/04 12:59:00;;;;;;;;;;;;;;;26.88;39.00;94441.59;5012962;28;8918;-56
2023/04/04 13:01:36;;;;;;;;;;;;;;;26.81;39.03;94439.41;5015920;28;9064;-57
2023/04/04 13:04:03;;;;;;;;;;;;;;;26.85;38.59;94437.09;5025164;28;7204;-56
2023/04/04 13:06:55;;;;;;;;;;;;;;;26.87;38.09;94445.59;5027883;28;7218;-56
2023/04/04 13:09:51;;;;;;;;;;;;;;;26.88;38.31;94430.53;5026102;28;7046;-56
2023/04/04 13:12:18;;;;;;;;;;;;;;;26.89;38.62;94438.31;5018240;28;7290;-56
2023/04/04 13:15:10;;;;;;;;;;;;;;;26.86;38.57;94439.31;5035290;28;7122;-56
2023/04/04 13:17:44;;;;;;;;;;;;;;;26.89;38.90;94443.81;5017001;28;7260;-56
2023/04/04 13:20:12;;;;;;;;;;;;;;;26.89;38.85;94437.53;5016234;28;8998;-56
2023/04/04 13:22:39;;;;;;;;;;;;;;;26.89;38.48;94443.06;5031125;28;7180;-56
2023/04/04 13:25:07;;;;;;;;;;;;;;;26.90;38.63;94430.78;5027505;28;9455;-56
2023/04/04 13:28:01;;;;;;;;;;;;;;;26.93;38.78;94426.97;5022458;28;7031;-56
2023/04/04 13:30:27;;;;;;;;;;;;;;;26.96;38.76;94431.47;5020318;28;7120;-56
2023/04/04 13:33:06;;;;;;;;;;;;;;;26.97;39.15;94415.66;5025000;28;7549;-56
2023/04/04 13:35:32;;;;;;;;;;;;;;;26.99;39.11;94418.63;5018901;28;7464;-56
2023/04/04 13:38:00;;;;;;;;;;;;;;;27.03;39.25;94427.38;5016718;28;9449;-56
2023/04/04 13:40:27;;;;;;;;;;;;;;;27.04;39.18;94420.56;5026061;28;8981;-56
2023/04/04 13:42:53;;;;;;;;;;;;;;;27.05;39.17;94417.31;5015708;28;8706;-56